Time;durP1;ratioP1;P1;durP2;ratioP2;P2;SDS_P1;SDS_P2;PMS_P1;PMS_P2;Temp;Humidity;BMP_temperature;BMP_pressure;BME280_temperature;BME280_humidity;BME280_pressure;Samples;Min_cycle;Max_cycle;Signal;HPM_P1;HPM_P2
2021/08/23 00:02:23;;;;;;;;;;;15.40;94.30;;;;;;5074985;28;20425;-63
2021/08/23 00:04:49;;;;;;;;;;;15.40;94.30;;;;;;5074685;28;19924;-63
2021/08/23 00:07:14;;;;;;;;;;;15.40;94.30;;;;;;5092235;28;19920;-61
2021/08/23 00:09:40;;;;;;;;;;;15.40;94.30;;;;;;5075272;28;19920;-63
2021/08/23 00:12:05;;;;;;;;;;;15.40;94.30;;;;;;5092689;28;19923;-63
2021/08/23 00:14:31;;;;;;;;;;;15.40;94.30;;;;;;5092210;28;20350;-63
2021/08/23 00:16:56;;;;;;;;;;;15.40;94.50;;;;;;5074338;28;20287;-63
2021/08/23 00:19:22;;;;;;;;;;;15.40;94.30;;;;;;5093007;28;20026;-63
2021/08/23 00:21:50;;;;;;;;;;;15.40;94.30;;;;;;5074591;28;19916;-62
2021/08/23 00:24:22;;;;;;;;;;;15.30;94.40;;;;;;5092710;28;19916;-63
2021/08/23 00:26:49;;;;;;;;;;;15.40;94.40;;;;;;5092053;28;19920;-62
2021/08/23 00:29:16;;;;;;;;;;;15.40;94.40;;;;;;5091028;28;21301;-63
2021/08/23 00:31:42;;;;;;;;;;;15.40;94.50;;;;;;5074894;28;19917;-64
2021/08/23 00:34:07;;;;;;;;;;;15.40;94.50;;;;;;5092341;28;19942;-63
2021/08/23 00:36:33;;;;;;;;;;;15.40;94.50;;;;;;5072144;28;19966;-63
2021/08/23 00:38:58;;;;;;;;;;;15.40;94.50;;;;;;5073881;28;19999;-63
2021/08/23 00:41:24;;;;;;;;;;;15.40;94.50;;;;;;5092392;28;19959;-63
2021/08/23 00:43:49;;;;;;;;;;;15.40;94.80;;;;;;5092616;28;20010;-64
2021/08/23 00:46:15;;;;;;;;;;;15.40;94.50;;;;;;5075561;28;19951;-63
2021/08/23 00:48:40;;;;;;;;;;;15.40;94.50;;;;;;5071192;28;19955;-64
2021/08/23 00:51:07;;;;;;;;;;;15.40;94.50;;;;;;5072356;28;19975;-63
2021/08/23 00:53:32;;;;;;;;;;;15.40;94.40;;;;;;5072305;28;19917;-63
2021/08/23 00:55:58;;;;;;;;;;;15.30;94.50;;;;;;5071128;28;20288;-63
2021/08/23 00:58:25;;;;;;;;;;;15.30;94.40;;;;;;5071371;28;19923;-64
2021/08/23 01:00:54;;;;;;;;;;;15.30;94.40;;;;;;5071781;28;19927;-63
2021/08/23 01:03:24;;;;;;;;;;;15.20;94.40;;;;;;5054131;28;19969;-63
2021/08/23 01:05:49;;;;;;;;;;;15.20;94.30;;;;;;5070989;28;19916;-62
2021/08/23 01:08:31;;;;;;;;;;;15.10;94.30;;;;;;5071137;28;19966;-64
2021/08/23 01:10:57;;;;;;;;;;;15.00;94.30;;;;;;5071797;28;19916;-63
2021/08/23 01:13:24;;;;;;;;;;;15.00;94.40;;;;;;5053707;28;19935;-63
2021/08/23 01:15:49;;;;;;;;;;;14.90;94.40;;;;;;5071335;28;19920;-63
2021/08/23 01:18:15;;;;;;;;;;;14.80;94.50;;;;;;5070662;28;20010;-63
2021/08/23 01:20:41;;;;;;;;;;;14.90;94.60;;;;;;5053990;28;19923;-63
2021/08/23 01:23:08;;;;;;;;;;;14.90;94.60;;;;;;5071417;28;20350;-63
2021/08/23 01:25:35;;;;;;;;;;;14.80;94.60;;;;;;5070247;28;19928;-63
2021/08/23 01:28:07;;;;;;;;;;;14.80;94.70;;;;;;5053098;28;20323;-64
2021/08/23 01:30:51;;;;;;;;;;;14.80;94.70;;;;;;5071868;28;20327;-63
2021/08/23 01:33:16;;;;;;;;;;;14.80;94.80;;;;;;5071345;28;20003;-63
2021/08/23 01:35:42;;;;;;;;;;;14.80;94.70;;;;;;5070984;28;19948;-63
2021/08/23 01:38:08;;;;;;;;;;;14.80;94.70;;;;;;5070488;28;20015;-63
2021/08/23 01:40:33;;;;;;;;;;;14.70;94.90;;;;;;5071637;28;19917;-64
2021/08/23 01:42:59;;;;;;;;;;;14.70;94.70;;;;;;5053837;28;20368;-63
2021/08/23 01:45:24;;;;;;;;;;;14.70;94.70;;;;;;5070450;28;19942;-63
2021/08/23 01:47:50;;;;;;;;;;;14.70;94.70;;;;;;5070719;28;19920;-63
2021/08/23 01:50:15;;;;;;;;;;;14.70;94.80;;;;;;5053114;28;19916;-63
2021/08/23 01:52:41;;;;;;;;;;;14.70;94.80;;;;;;5071659;28;19917;-63
2021/08/23 01:55:06;;;;;;;;;;;14.60;94.80;;;;;;5070774;28;20380;-63
2021/08/23 01:57:32;;;;;;;;;;;14.60;94.80;;;;;;5053950;28;19913;-63
2021/08/23 01:59:57;;;;;;;;;;;14.60;94.80;;;;;;5071790;28;19917;-63
2021/08/23 02:02:23;;;;;;;;;;;14.60;94.90;;;;;;5071349;28;20078;-63
2021/08/23 02:04:49;;;;;;;;;;;14.60;94.90;;;;;;5074350;28;20388;-63
2021/08/23 02:07:14;;;;;;;;;;;14.60;95.00;;;;;;5090839;28;20010;-63
2021/08/23 02:09:40;;;;;;;;;;;14.50;95.00;;;;;;5056323;28;20062;-62
2021/08/23 02:12:05;;;;;;;;;;;14.60;95.10;;;;;;5091550;28;19917;-63
2021/08/23 02:14:31;;;;;;;;;;;14.60;95.10;;;;;;5090768;28;19916;-63
2021/08/23 02:16:57;;;;;;;;;;;14.60;95.10;;;;;;5090273;28;19917;-63
2021/08/23 02:19:23;;;;;;;;;;;14.60;95.10;;;;;;5091496;28;19920;-63
2021/08/23 02:21:53;;;;;;;;;;;14.60;95.10;;;;;;5073409;28;20002;-64
2021/08/23 02:24:19;;;;;;;;;;;14.60;95.10;;;;;;5072450;28;19920;-63
2021/08/23 02:26:44;;;;;;;;;;;14.60;95.00;;;;;;5073311;28;20035;-59
2021/08/23 02:29:10;;;;;;;;;;;14.50;94.90;;;;;;5072732;28;19916;-59
2021/08/23 02:31:36;;;;;;;;;;;14.50;94.80;;;;;;5091207;28;19924;-60
2021/08/23 02:34:02;;;;;;;;;;;14.40;94.70;;;;;;5091352;28;19916;-60
2021/08/23 02:36:27;;;;;;;;;;;14.40;94.80;;;;;;5093315;28;20015;-59
2021/08/23 02:38:53;;;;;;;;;;;14.30;94.80;;;;;;5094367;28;19977;-59
2021/08/23 02:41:19;;;;;;;;;;;14.20;94.80;;;;;;5095158;28;19916;-60
2021/08/23 02:43:44;;;;;;;;;;;14.20;94.80;;;;;;5094536;28;19963;-60
2021/08/23 02:46:10;;;;;;;;;;;14.10;94.90;;;;;;5094301;28;19943;-59
2021/08/23 02:48:35;;;;;;;;;;;14.10;94.80;;;;;;5094235;28;19951;-59
2021/08/23 02:51:01;;;;;;;;;;;14.00;94.80;;;;;;5076368;28;19958;-59
2021/08/23 02:53:27;;;;;;;;;;;14.00;94.80;;;;;;5094871;28;20598;-59
2021/08/23 02:55:52;;;;;;;;;;;13.90;94.80;;;;;;5094319;28;19923;-59
2021/08/23 02:58:18;;;;;;;;;;;13.90;94.90;;;;;;5093729;28;19917;-59
2021/08/23 03:00:43;;;;;;;;;;;13.90;94.90;;;;;;5094628;28;20300;-59
2021/08/23 03:03:09;;;;;;;;;;;13.80;94.90;;;;;;5094272;28;19938;-59
2021/08/23 03:05:34;;;;;;;;;;;13.70;94.90;;;;;;5093902;28;20011;-59
2021/08/23 03:08:00;;;;;;;;;;;13.70;94.90;;;;;;5093843;28;19920;-59
2021/08/23 03:10:25;;;;;;;;;;;13.60;94.90;;;;;;5094141;28;19916;-59
2021/08/23 03:12:52;;;;;;;;;;;13.60;95.00;;;;;;5094560;28;20395;-59
2021/08/23 03:15:17;;;;;;;;;;;13.60;95.00;;;;;;5093899;28;20288;-59
2021/08/23 03:17:43;;;;;;;;;;;13.60;95.00;;;;;;5093173;28;19932;-59
2021/08/23 03:20:08;;;;;;;;;;;13.50;95.00;;;;;;5094353;28;19916;-60
2021/08/23 03:22:34;;;;;;;;;;;13.50;95.00;;;;;;5093741;28;19920;-59
2021/08/23 03:25:00;;;;;;;;;;;13.50;95.00;;;;;;5093462;28;19920;-59
2021/08/23 03:27:25;;;;;;;;;;;13.50;95.00;;;;;;5093404;28;19916;-59
2021/08/23 03:29:53;;;;;;;;;;;13.40;95.00;;;;;;5093648;28;19952;-59
2021/08/23 03:32:18;;;;;;;;;;;13.40;95.00;;;;;;5094163;28;20399;-59
2021/08/23 03:34:44;;;;;;;;;;;13.40;95.10;;;;;;5088549;28;19920;-59
2021/08/23 03:37:10;;;;;;;;;;;13.40;95.10;;;;;;5071721;28;19920;-59
2021/08/23 03:39:35;;;;;;;;;;;13.30;95.10;;;;;;5072643;28;20398;-59
2021/08/23 03:42:01;;;;;;;;;;;13.30;95.10;;;;;;5073185;28;20007;-62
2021/08/23 03:44:27;;;;;;;;;;;13.30;95.10;;;;;;5072924;28;20292;-59
2021/08/23 03:46:54;;;;;;;;;;;13.20;95.10;;;;;;5071945;28;19917;-59
2021/08/23 03:49:19;;;;;;;;;;;13.20;95.10;;;;;;5072974;28;19917;-59
2021/08/23 03:51:46;;;;;;;;;;;13.20;95.10;;;;;;5073645;28;19969;-59
2021/08/23 03:54:12;;;;;;;;;;;13.10;95.10;;;;;;5073415;28;19966;-59
2021/08/23 03:56:37;;;;;;;;;;;13.10;95.10;;;;;;5080889;28;19920;-59
2021/08/23 03:59:03;;;;;;;;;;;13.10;95.20;;;;;;5075221;28;19948;-59
2021/08/23 04:01:28;;;;;;;;;;;13.10;95.20;;;;;;5093138;28;19918;-59
2021/08/23 04:03:54;;;;;;;;;;;13.10;95.20;;;;;;5093406;28;20007;-58
2021/08/23 04:06:19;;;;;;;;;;;13.10;95.20;;;;;;5092684;28;20414;-58
2021/08/23 04:08:45;;;;;;;;;;;13.10;95.20;;;;;;5092217;28;19920;-59
2021/08/23 04:11:12;;;;;;;;;;;13.00;95.30;;;;;;5093330;28;19977;-59
2021/08/23 04:13:38;;;;;;;;;;;13.00;95.30;;;;;;5092700;28;19916;-61
2021/08/23 04:16:03;;;;;;;;;;;13.00;95.30;;;;;;5092340;28;20300;-59
2021/08/23 04:18:29;;;;;;;;;;;13.00;95.30;;;;;;5092485;28;19966;-59
2021/08/23 04:20:54;;;;;;;;;;;13.00;95.40;;;;;;5093231;28;20003;-58
2021/08/23 04:23:20;;;;;;;;;;;13.00;95.50;;;;;;5092629;28;20105;-59
2021/08/23 04:25:45;;;;;;;;;;;13.00;95.50;;;;;;5062196;28;19920;-58
2021/08/23 04:28:11;;;;;;;;;;;13.00;95.50;;;;;;5071982;28;19917;-59
2021/08/23 04:30:37;;;;;;;;;;;13.00;95.40;;;;;;5072321;28;20304;-58
2021/08/23 04:33:03;;;;;;;;;;;13.00;95.50;;;;;;5072673;28;20011;-58
2021/08/23 04:35:29;;;;;;;;;;;13.00;95.40;;;;;;5081537;28;19916;-58
2021/08/23 04:37:54;;;;;;;;;;;13.00;95.50;;;;;;5091329;28;19966;-58
2021/08/23 04:40:20;;;;;;;;;;;13.00;95.60;;;;;;5092801;28;19943;-58
2021/08/23 04:42:45;;;;;;;;;;;13.10;95.70;;;;;;5092370;28;19923;-59
2021/08/23 04:45:11;;;;;;;;;;;13.10;95.70;;;;;;5091743;28;19920;-59
2021/08/23 04:47:36;;;;;;;;;;;13.10;95.70;;;;;;5091235;28;19920;-59
2021/08/23 04:50:02;;;;;;;;;;;13.20;95.70;;;;;;5091459;28;20283;-59
2021/08/23 04:52:28;;;;;;;;;;;13.20;95.80;;;;;;5092522;28;19919;-58
2021/08/23 04:54:53;;;;;;;;;;;13.20;95.80;;;;;;5073472;28;20383;-60
2021/08/23 04:57:19;;;;;;;;;;;13.30;95.80;;;;;;5071674;28;19970;-59
2021/08/23 04:59:44;;;;;;;;;;;13.30;95.80;;;;;;5053989;28;19916;-58
2021/08/23 05:02:10;;;;;;;;;;;13.40;95.90;;;;;;5071562;28;19919;-59
2021/08/23 05:04:35;;;;;;;;;;;13.40;95.90;;;;;;5073561;28;20377;-59
2021/08/23 05:07:01;;;;;;;;;;;13.50;95.90;;;;;;5073557;28;19986;-59
2021/08/23 05:09:27;;;;;;;;;;;13.50;95.90;;;;;;5091937;28;20402;-59
2021/08/23 05:11:52;;;;;;;;;;;13.60;95.90;;;;;;5092223;28;19912;-59
2021/08/23 05:14:18;;;;;;;;;;;13.70;96.00;;;;;;5091885;28;19916;-59
2021/08/23 05:16:43;;;;;;;;;;;13.70;96.00;;;;;;5090800;28;19919;-59
2021/08/23 05:19:09;;;;;;;;;;;13.80;96.10;;;;;;5073706;28;19923;-59
2021/08/23 05:21:34;;;;;;;;;;;13.90;96.20;;;;;;5091526;28;19919;-59
2021/08/23 05:24:01;;;;;;;;;;;14.10;96.30;;;;;;5085699;28;20420;-59
2021/08/23 05:26:26;;;;;;;;;;;14.20;96.30;;;;;;5089788;28;20046;-59
2021/08/23 05:28:52;;;;;;;;;;;14.50;96.50;;;;;;5090710;28;19920;-59
2021/08/23 05:31:17;;;;;;;;;;;14.80;96.70;;;;;;5091930;28;20391;-59
2021/08/23 05:33:43;;;;;;;;;;;15.20;96.50;;;;;;5091840;28;20011;-59
2021/08/23 05:36:09;;;;;;;;;;;15.40;96.10;;;;;;5088830;28;19931;-59
2021/08/23 05:38:34;;;;;;;;;;;15.40;95.80;;;;;;5079939;28;19916;-60
2021/08/23 05:41:00;;;;;;;;;;;15.50;95.80;;;;;;5078591;28;19921;-59
2021/08/23 05:43:26;;;;;;;;;;;16.00;97.00;;;;;;5052546;28;19920;-59
2021/08/23 05:45:51;;;;;;;;;;;16.70;97.50;;;;;;5083635;28;20295;-59
2021/08/23 05:48:17;;;;;;;;;;;17.60;97.80;;;;;;5090829;28;19923;-59
2021/08/23 05:50:42;;;;;;;;;;;18.40;97.40;;;;;;5085849;28;19916;-60
2021/08/23 05:53:08;;;;;;;;;;;19.10;96.30;;;;;;5071349;28;19916;-59
2021/08/23 05:55:33;;;;;;;;;;;19.70;95.80;;;;;;5080170;28;19923;-59
2021/08/23 05:57:59;;;;;;;;;;;20.30;95.20;;;;;;5072547;28;19923;-59
2021/08/23 06:00:25;;;;;;;;;;;21.10;95.10;;;;;;5090947;28;19917;-59
2021/08/23 06:02:50;;;;;;;;;;;21.70;94.50;;;;;;5089806;28;19916;-59
2021/08/23 06:05:16;;;;;;;;;;;22.20;92.60;;;;;;5089407;28;19977;-59
2021/08/23 06:07:41;;;;;;;;;;;22.60;92.40;;;;;;5080331;28;19925;-59
2021/08/23 06:10:09;;;;;;;;;;;23.10;91.60;;;;;;5080969;28;19999;-59
2021/08/23 06:12:35;;;;;;;;;;;23.50;91.50;;;;;;5083848;28;19916;-59
2021/08/23 06:15:00;;;;;;;;;;;24.00;90.50;;;;;;5063663;28;19939;-60
2021/08/23 06:17:29;;;;;;;;;;;24.50;88.80;;;;;;5083150;28;20673;-61
2021/08/23 06:19:55;;;;;;;;;;;24.80;88.70;;;;;;5082683;28;19916;-61
2021/08/23 06:22:20;;;;;;;;;;;25.30;87.50;;;;;;5047531;28;19927;-62
2021/08/23 06:24:46;;;;;;;;;;;25.80;86.00;;;;;;5077082;28;20012;-61
2021/08/23 06:27:11;;;;;;;;;;;26.40;84.90;;;;;;5093940;28;20017;-62
2021/08/23 06:29:37;;;;;;;;;;;26.90;81.50;;;;;;5076694;28;20503;-62
2021/08/23 06:32:03;;;;;;;;;;;27.30;79.10;;;;;;5094644;28;20322;-62
2021/08/23 06:34:29;;;;;;;;;;;27.50;77.40;;;;;;5076219;28;19920;-61
2021/08/23 06:36:54;;;;;;;;;;;27.70;74.20;;;;;;5071434;28;19981;-61
2021/08/23 06:39:20;;;;;;;;;;;27.90;73.10;;;;;;5094809;28;20427;-61
2021/08/23 06:41:45;;;;;;;;;;;28.20;70.40;;;;;;5094333;28;19955;-61
2021/08/23 06:44:12;;;;;;;;;;;28.40;70.30;;;;;;5072190;28;20003;-62
2021/08/23 06:46:38;;;;;;;;;;;28.80;68.20;;;;;;5075970;28;19920;-62
2021/08/23 06:49:04;;;;;;;;;;;29.40;67.70;;;;;;5073853;28;20341;-62
2021/08/23 06:51:29;;;;;;;;;;;29.90;65.60;;;;;;5072206;28;19962;-61
2021/08/23 06:53:55;;;;;;;;;;;30.40;64.10;;;;;;5070243;28;19956;-62
2021/08/23 06:56:21;;;;;;;;;;;30.80;62.30;;;;;;5087518;28;19916;-62
2021/08/23 06:58:47;;;;;;;;;;;31.20;59.80;;;;;;5057335;28;19916;-62
2021/08/23 07:01:12;;;;;;;;;;;31.50;58.10;;;;;;5091800;28;20665;-62
2021/08/23 07:03:38;;;;;;;;;;;31.70;57.60;;;;;;5087714;28;19981;-62
2021/08/23 07:06:03;;;;;;;;;;;31.90;55.30;;;;;;5075401;28;20395;-62
2021/08/23 07:08:29;;;;;;;;;;;31.90;54.10;;;;;;5073356;28;19920;-62
2021/08/23 07:10:56;;;;;;;;;;;32.10;54.90;;;;;;5076869;28;19916;-62
2021/08/23 07:13:22;;;;;;;;;;;32.90;54.20;;;;;;5083502;28;20316;-62
2021/08/23 07:15:47;;;;;;;;;;;33.30;51.90;;;;;;5066241;28;19920;-62
2021/08/23 07:18:13;;;;;;;;;;;33.50;50.60;;;;;;5082250;28;20392;-61
2021/08/23 07:20:38;;;;;;;;;;;33.70;50.00;;;;;;5082167;28;20351;-62
2021/08/23 07:23:04;;;;;;;;;;;34.00;49.20;;;;;;5083172;28;19978;-61
2021/08/23 07:25:29;;;;;;;;;;;34.30;48.00;;;;;;5082542;28;20284;-61
2021/08/23 07:27:55;;;;;;;;;;;34.70;47.10;;;;;;5086743;28;20008;-62
2021/08/23 07:30:20;;;;;;;;;;;35.20;46.90;;;;;;5073673;28;20334;-62
2021/08/23 07:32:46;;;;;;;;;;;35.70;45.60;;;;;;5075996;28;20045;-62
2021/08/23 07:35:12;;;;;;;;;;;35.90;43.30;;;;;;5089344;28;19923;-62
2021/08/23 07:37:45;;;;;;;;;;;35.90;43.70;;;;;;5072853;28;19917;-61
2021/08/23 07:40:11;;;;;;;;;;;35.90;42.80;;;;;;5083348;28;19924;-61
2021/08/23 07:42:37;;;;;;;;;;;36.30;42.60;;;;;;5082237;28;20428;-60
2021/08/23 07:45:02;;;;;;;;;;;36.60;41.70;;;;;;5064345;28;20394;-61
2021/08/23 07:47:28;;;;;;;;;;;37.30;42.10;;;;;;5082334;28;20357;-61
2021/08/23 07:49:53;;;;;;;;;;;37.30;39.70;;;;;;5081893;28;19917;-61
2021/08/23 07:52:21;;;;;;;;;;;37.40;40.30;;;;;;5049034;28;20556;-62
2021/08/23 07:54:47;;;;;;;;;;;38.00;39.90;;;;;;5082469;28;20365;-62
2021/08/23 07:57:12;;;;;;;;;;;38.60;39.50;;;;;;5081163;28;19920;-62
2021/08/23 07:59:38;;;;;;;;;;;39.20;38.40;;;;;;5082959;28;19956;-62
2021/08/23 08:02:03;;;;;;;;;;;39.50;37.30;;;;;;5082656;28;20440;-62
2021/08/23 08:04:29;;;;;;;;;;;39.90;36.10;;;;;;5081876;28;19920;-62
2021/08/23 08:06:55;;;;;;;;;;;39.50;35.40;;;;;;5082041;28;19962;-63
2021/08/23 08:09:21;;;;;;;;;;;39.60;35.40;;;;;;5082252;28;19924;-60
2021/08/23 08:11:47;;;;;;;;;;;40.00;35.30;;;;;;5082025;28;19916;-61
2021/08/23 08:14:13;;;;;;;;;;;40.50;34.90;;;;;;5082771;28;20390;-61
2021/08/23 08:16:39;;;;;;;;;;;41.00;34.10;;;;;;5062886;28;19966;-62
2021/08/23 08:19:04;;;;;;;;;;;41.30;33.40;;;;;;5081403;28;19961;-61
2021/08/23 08:21:30;;;;;;;;;;;41.50;32.60;;;;;;5057419;28;19917;-62
2021/08/23 08:23:56;;;;;;;;;;;41.50;32.00;;;;;;5081196;28;20380;-61
2021/08/23 08:26:21;;;;;;;;;;;41.20;31.40;;;;;;5090252;28;19931;-62
2021/08/23 08:28:47;;;;;;;;;;;41.40;31.70;;;;;;5092091;28;20334;-61
2021/08/23 08:31:12;;;;;;;;;;;41.60;31.20;;;;;;5084782;28;19923;-62
2021/08/23 08:33:38;;;;;;;;;;;42.00;31.00;;;;;;5076668;28;19996;-62
2021/08/23 08:36:03;;;;;;;;;;;42.40;30.50;;;;;;5076296;28;19959;-61
2021/08/23 08:38:29;;;;;;;;;;;43.10;30.00;;;;;;5072028;28;20349;-62
2021/08/23 08:40:59;;;;;;;;;;;43.40;29.80;;;;;;5072049;28;19921;-64
2021/08/23 08:43:28;;;;;;;;;;;43.90;29.50;;;;;;5079320;28;19916;-62
2021/08/23 08:45:54;;;;;;;;;;;44.60;29.50;;;;;;5083238;28;19931;-62
2021/08/23 08:48:20;;;;;;;;;;;44.60;28.30;;;;;;5070867;28;19916;-62
2021/08/23 08:50:46;;;;;;;;;;;44.30;28.50;;;;;;5070492;28;20373;-62
2021/08/23 08:53:11;;;;;;;;;;;44.30;28.60;;;;;;5075574;28;20011;-61
2021/08/23 08:55:37;;;;;;;;;;;44.50;28.30;;;;;;5086272;28;20367;-61
2021/08/23 08:58:06;;;;;;;;;;;44.80;28.10;;;;;;5076665;28;19923;-62
2021/08/23 09:00:37;;;;;;;;;;;44.80;27.60;;;;;;5088453;28;19920;-62
2021/08/23 09:03:03;;;;;;;;;;;44.80;27.60;;;;;;5090827;28;19930;-61
2021/08/23 09:05:38;;;;;;;;;;;44.80;27.20;;;;;;5090122;28;19928;-61
2021/08/23 09:08:04;;;;;;;;;;;44.60;27.10;;;;;;5091461;28;19920;-62
2021/08/23 09:10:31;;;;;;;;;;;44.50;27.10;;;;;;5092802;28;19966;-62
2021/08/23 09:13:07;;;;;;;;;;;44.90;26.90;;;;;;5076260;28;19923;-62
2021/08/23 09:15:34;;;;;;;;;;;45.30;26.50;;;;;;5091357;28;19916;-62
2021/08/23 09:18:03;;;;;;;;;;;45.30;26.40;;;;;;5091553;28;19919;-62
2021/08/23 09:20:28;;;;;;;;;;;45.40;26.20;;;;;;5091691;28;19916;-63
2021/08/23 09:22:54;;;;;;;;;;;45.40;26.50;;;;;;5073683;28;19923;-63
2021/08/23 09:25:23;;;;;;;;;;;45.50;26.50;;;;;;5091669;28;19931;-62
2021/08/23 09:27:49;;;;;;;;;;;45.30;26.30;;;;;;5091309;28;19916;-62
2021/08/23 09:30:15;;;;;;;;;;;45.30;26.30;;;;;;5091787;28;20006;-62
2021/08/23 09:32:48;;;;;;;;;;;45.30;26.30;;;;;;5091934;28;20009;-62
2021/08/23 09:35:24;;;;;;;;;;;45.30;26.20;;;;;;5091224;28;19938;-61
2021/08/23 09:37:49;;;;;;;;;;;45.20;26.10;;;;;;5091466;28;20257;-62
2021/08/23 09:40:18;;;;;;;;;;;45.30;26.10;;;;;;5091319;28;20265;-62
2021/08/23 09:42:55;;;;;;;;;;;45.70;26.30;;;;;;5092037;28;19924;-64
2021/08/23 09:45:20;;;;;;;;;;;46.30;26.30;;;;;;5090442;28;19924;-62
2021/08/23 09:47:46;;;;;;;;;;;46.60;25.60;;;;;;5073404;28;19923;-62
2021/08/23 09:50:16;;;;;;;;;;;46.80;25.60;;;;;;5091124;28;19955;-62
2021/08/23 09:52:41;;;;;;;;;;;46.60;25.40;;;;;;5091606;28;19922;-61
2021/08/23 09:55:09;;;;;;;;;;;45.30;25.30;;;;;;5091514;28;19999;-62
2021/08/23 09:57:37;;;;;;;;;;;45.00;25.90;;;;;;5090822;28;19916;-62
2021/08/23 10:00:04;;;;;;;;;;;44.00;25.30;;;;;;5091486;28;19966;-62
2021/08/23 10:02:48;;;;;;;;;;;42.80;25.80;;;;;;5090920;28;19920;-62
2021/08/23 10:05:17;;;;;;;;;;;42.80;26.60;;;;;;5091413;28;19920;-62
2021/08/23 10:07:43;;;;;;;;;;;43.70;26.30;;;;;;5090875;28;19916;-63
2021/08/23 10:10:10;;;;;;;;;;;44.80;26.60;;;;;;5091337;28;19985;-62
2021/08/23 10:12:37;;;;;;;;;;;45.70;25.70;;;;;;5091389;28;19923;-61
2021/08/23 10:15:04;;;;;;;;;;;46.00;25.10;;;;;;5090721;28;20003;-62
2021/08/23 10:17:39;;;;;;;;;;;46.10;25.10;;;;;;5073069;28;19977;-62
2021/08/23 10:20:05;;;;;;;;;;;45.80;24.40;;;;;;5090902;28;19916;-62
2021/08/23 10:22:32;;;;;;;;;;;45.00;24.70;;;;;;5091392;28;19966;-62
2021/08/23 10:24:58;;;;;;;;;;;43.70;24.70;;;;;;5090909;28;19924;-61
2021/08/23 10:27:24;;;;;;;;;;;42.80;25.50;;;;;;5090685;28;19916;-62
2021/08/23 10:29:50;;;;;;;;;;;42.20;25.50;;;;;;5091228;28;19916;-61
2021/08/23 10:32:15;;;;;;;;;;;42.60;26.20;;;;;;5091002;28;19924;-62
2021/08/23 10:34:42;;;;;;;;;;;42.00;25.40;;;;;;5073147;28;19916;-62
2021/08/23 10:37:14;;;;;;;;;;;42.10;25.90;;;;;;5090842;28;19922;-61
2021/08/23 10:39:40;;;;;;;;;;;43.10;26.30;;;;;;5090733;28;19917;-63
2021/08/23 10:42:09;;;;;;;;;;;43.70;25.60;;;;;;5072854;28;19916;-62
2021/08/23 10:44:35;;;;;;;;;;;44.00;25.50;;;;;;5090908;28;20384;-62
2021/08/23 10:47:07;;;;;;;;;;;44.30;25.50;;;;;;5072126;28;19961;-63
2021/08/23 10:49:37;;;;;;;;;;;44.80;25.40;;;;;;5091037;28;19923;-62
2021/08/23 10:52:03;;;;;;;;;;;45.50;25.30;;;;;;5090511;28;20101;-62
2021/08/23 10:54:36;;;;;;;;;;;46.30;25.00;;;;;;5090564;28;20434;-62
2021/08/23 10:57:02;;;;;;;;;;;46.60;24.50;;;;;;5092720;28;19916;-61
2021/08/23 10:59:45;;;;;;;;;;;46.60;24.30;;;;;;5094699;28;19973;-62
2021/08/23 11:02:13;;;;;;;;;;;46.90;24.30;;;;;;5076057;28;19966;-62
2021/08/23 11:04:41;;;;;;;;;;;46.60;23.70;;;;;;5094488;28;20391;-62
2021/08/23 11:07:07;;;;;;;;;;;46.60;23.90;;;;;;5094245;28;19916;-62
2021/08/23 11:09:37;;;;;;;;;;;46.10;23.60;;;;;;5094114;28;20025;-62
2021/08/23 11:12:11;;;;;;;;;;;45.20;23.60;;;;;;5094451;28;19923;-61
2021/08/23 11:14:50;;;;;;;;;;;45.30;24.10;;;;;;5093943;28;20372;-61
2021/08/23 11:17:26;;;;;;;;;;;45.30;23.30;;;;;;5094066;28;19923;-61
2021/08/23 11:19:51;;;;;;;;;;;44.70;23.40;;;;;;5093863;28;20289;-61
2021/08/23 11:22:18;;;;;;;;;;;44.70;23.90;;;;;;5094179;28;19916;-62
2021/08/23 11:24:43;;;;;;;;;;;45.40;23.80;;;;;;5093486;28;19962;-62
2021/08/23 11:27:09;;;;;;;;;;;46.00;23.70;;;;;;5093984;28;20166;-61
2021/08/23 11:29:38;;;;;;;;;;;46.50;23.50;;;;;;5075958;28;19938;-63
2021/08/23 11:32:06;;;;;;;;;;;46.80;23.30;;;;;;5093593;28;19931;-62
2021/08/23 11:34:31;;;;;;;;;;;46.40;22.80;;;;;;5093980;28;20003;-61
2021/08/23 11:37:01;;;;;;;;;;;46.30;23.10;;;;;;5075588;28;19999;-63
2021/08/23 11:39:28;;;;;;;;;;;46.60;23.30;;;;;;5075527;28;20372;-62
2021/08/23 11:42:02;;;;;;;;;;;47.00;23.30;;;;;;5093931;28;19916;-62
2021/08/23 11:44:28;;;;;;;;;;;47.20;23.20;;;;;;5093281;28;19927;-62
2021/08/23 11:47:01;;;;;;;;;;;47.30;23.10;;;;;;5093580;28;19915;-61
2021/08/23 11:49:28;;;;;;;;;;;47.60;23.20;;;;;;5093018;28;19916;-62
2021/08/23 11:51:53;;;;;;;;;;;47.60;22.90;;;;;;5093721;28;20049;-63
2021/08/23 11:54:19;;;;;;;;;;;46.60;22.70;;;;;;5093203;28;20399;-64
2021/08/23 11:56:44;;;;;;;;;;;45.70;22.70;;;;;;5075243;28;19939;-63
2021/08/23 11:59:11;;;;;;;;;;;44.10;22.50;;;;;;5093496;28;20187;-63
2021/08/23 12:01:36;;;;;;;;;;;41.40;22.90;;;;;;5092987;28;19920;-63
2021/08/23 12:04:02;;;;;;;;;;;39.80;24.60;;;;;;5093239;28;19927;-63
2021/08/23 12:06:34;;;;;;;;;;;39.30;24.60;;;;;;5092981;28;19923;-63
2021/08/23 12:09:00;;;;;;;;;;;38.90;24.80;;;;;;5092070;28;19917;-62
2021/08/23 12:11:26;;;;;;;;;;;37.50;24.60;;;;;;5093354;28;19922;-62
2021/08/23 12:13:51;;;;;;;;;;;35.50;25.30;;;;;;5092708;28;19920;-63
2021/08/23 12:16:18;;;;;;;;;;;33.80;26.30;;;;;;5090531;28;20376;-62
2021/08/23 12:18:43;;;;;;;;;;;32.80;26.80;;;;;;5092367;28;19916;-62
2021/08/23 12:21:28;;;;;;;;;;;32.00;27.30;;;;;;5092853;28;19935;-62
2021/08/23 12:24:04;;;;;;;;;;;31.20;27.90;;;;;;5092930;28;19963;-61
2021/08/23 12:26:37;;;;;;;;;;;30.50;28.50;;;;;;5092323;28;19990;-62
2021/08/23 12:29:14;;;;;;;;;;;29.80;29.00;;;;;;5092955;28;20551;-62
2021/08/23 12:31:47;;;;;;;;;;;29.40;29.60;;;;;;5092491;28;19959;-61
2021/08/23 12:34:13;;;;;;;;;;;29.00;30.10;;;;;;5092686;28;20011;-62
2021/08/23 12:36:39;;;;;;;;;;;28.80;30.60;;;;;;5092153;28;19919;-62
2021/08/23 12:39:05;;;;;;;;;;;28.90;30.90;;;;;;5092669;28;19916;-61
2021/08/23 12:41:30;;;;;;;;;;;29.10;31.30;;;;;;5086116;28;19983;-62
2021/08/23 12:43:56;;;;;;;;;;;29.10;31.30;;;;;;5082552;28;19928;-62
2021/08/23 12:46:21;;;;;;;;;;;29.20;32.10;;;;;;5081831;28;19981;-62
2021/08/23 12:48:47;;;;;;;;;;;29.80;32.00;;;;;;5063059;28;20351;-61
2021/08/23 12:51:17;;;;;;;;;;;30.00;30.90;;;;;;5079785;28;19916;-62
2021/08/23 12:53:44;;;;;;;;;;;29.90;30.60;;;;;;5081525;28;19916;-60
2021/08/23 12:56:10;;;;;;;;;;;29.30;30.90;;;;;;5081557;28;19921;-61
2021/08/23 12:58:35;;;;;;;;;;;28.70;31.20;;;;;;5061612;28;19917;-61
2021/08/23 13:01:01;;;;;;;;;;;28.20;31.70;;;;;;5082776;28;19916;-61
2021/08/23 13:03:27;;;;;;;;;;;27.80;32.60;;;;;;5082455;28;20014;-61
2021/08/23 13:05:52;;;;;;;;;;;27.50;33.00;;;;;;5079703;28;19977;-61
2021/08/23 13:08:18;;;;;;;;;;;27.10;33.30;;;;;;5063515;28;20003;-61
2021/08/23 13:10:44;;;;;;;;;;;26.80;33.70;;;;;;5062232;28;19917;-59
2021/08/23 13:13:11;;;;;;;;;;;26.50;34.20;;;;;;5079745;28;19920;-60
2021/08/23 13:15:37;;;;;;;;;;;26.10;34.60;;;;;;5081659;28;19923;-60
2021/08/23 13:18:02;;;;;;;;;;;26.00;35.20;;;;;;5079882;28;19956;-61
2021/08/23 13:20:28;;;;;;;;;;;26.00;36.00;;;;;;5081830;28;19940;-61
2021/08/23 13:22:53;;;;;;;;;;;26.30;36.10;;;;;;5081231;28;19923;-62
2021/08/23 13:25:19;;;;;;;;;;;26.60;36.00;;;;;;5079515;28;20044;-61
2021/08/23 13:27:45;;;;;;;;;;;26.70;36.00;;;;;;5079524;28;20019;-61
2021/08/23 13:30:10;;;;;;;;;;;26.50;35.90;;;;;;5063291;28;20418;-61
2021/08/23 13:32:36;;;;;;;;;;;26.20;36.00;;;;;;5075541;28;20364;-60
2021/08/23 13:35:01;;;;;;;;;;;25.80;36.10;;;;;;5081801;28;19970;-61
2021/08/23 13:37:27;;;;;;;;;;;25.40;36.50;;;;;;5079609;28;19916;-61
2021/08/23 13:39:52;;;;;;;;;;;25.10;37.00;;;;;;5082011;28;20279;-61
2021/08/23 13:42:18;;;;;;;;;;;24.90;37.60;;;;;;5079648;28;19924;-60
2021/08/23 13:44:43;;;;;;;;;;;24.80;38.00;;;;;;5081052;28;19920;-61
2021/08/23 13:47:09;;;;;;;;;;;24.80;38.30;;;;;;5083367;28;19921;-61
2021/08/23 13:49:34;;;;;;;;;;;24.80;38.70;;;;;;5078834;28;19912;-61
2021/08/23 13:52:00;;;;;;;;;;;24.80;38.50;;;;;;5081818;28;19923;-61
2021/08/23 13:54:25;;;;;;;;;;;24.70;38.80;;;;;;5081360;28;19947;-60
2021/08/23 13:56:51;;;;;;;;;;;24.70;39.20;;;;;;5081631;28;20214;-61
2021/08/23 13:59:17;;;;;;;;;;;24.60;39.10;;;;;;5080695;28;19938;-61
2021/08/23 14:01:42;;;;;;;;;;;24.60;39.30;;;;;;5079705;28;19916;-61
2021/08/23 14:04:08;;;;;;;;;;;24.50;39.40;;;;;;5063463;28;19925;-60
2021/08/23 14:06:33;;;;;;;;;;;24.40;39.50;;;;;;5081926;28;19916;-60
2021/08/23 14:09:00;;;;;;;;;;;24.30;39.50;;;;;;5078834;28;19923;-60
2021/08/23 14:11:27;;;;;;;;;;;24.20;39.80;;;;;;5080237;28;19973;-61
2021/08/23 14:13:53;;;;;;;;;;;24.10;40.00;;;;;;5063301;28;20019;-60